createdAt,value
2023-01-21T00:00:05.916Z,1001.80
2023-01-21T00:01:05.875Z,1001.85
2023-01-21T00:02:05.906Z,1001.88
2023-01-21T00:03:05.963Z,1001.89
2023-01-21T00:04:05.866Z,1001.85
2023-01-21T00:05:05.853Z,1001.88
2023-01-21T00:06:05.927Z,1001.90
2023-01-21T00:07:06.474Z,1001.88
2023-01-21T00:08:05.861Z,1001.87
2023-01-21T00:09:05.827Z,1001.89
2023-01-21T00:10:05.850Z,1001.95
2023-01-21T00:11:05.957Z,1001.98
2023-01-21T00:12:05.791Z,1001.99
2023-01-21T00:13:05.809Z,1001.95
2023-01-21T00:14:05.811Z,1002.05
2023-01-21T00:15:05.802Z,1002.02
2023-01-21T00:16:05.874Z,1002.04
2023-01-21T00:17:05.843Z,1002.03
2023-01-21T00:18:05.758Z,1002.13
2023-01-21T00:19:05.795Z,1002.10
2023-01-21T00:20:05.794Z,1002.08
2023-01-21T00:21:05.746Z,1002.07
2023-01-21T00:22:05.815Z,1002.12
2023-01-21T00:23:05.755Z,1002.18
2023-01-21T00:24:05.731Z,1002.09
2023-01-21T00:25:05.738Z,1002.16
2023-01-21T00:26:05.980Z,1002.13
2023-01-21T00:27:05.728Z,1002.17
2023-01-21T00:28:05.764Z,1002.22
2023-01-21T00:29:05.742Z,1002.23
2023-01-21T00:30:05.809Z,1002.25
2023-01-21T00:31:06.160Z,1002.27
2023-01-21T00:32:05.821Z,1002.29
2023-01-21T00:33:05.724Z,1002.23
2023-01-21T00:34:05.678Z,1002.29
2023-01-21T00:35:05.783Z,1002.31
2023-01-21T00:36:05.649Z,1002.33
2023-01-21T00:37:05.710Z,1002.34
2023-01-21T00:38:05.646Z,1002.38
2023-01-21T00:39:05.646Z,1002.38
2023-01-21T00:40:05.651Z,1002.40
2023-01-21T00:41:05.625Z,1002.42
2023-01-21T00:42:05.887Z,1002.41
2023-01-21T00:43:05.636Z,1002.35
2023-01-21T00:44:05.627Z,1002.44
2023-01-21T00:45:05.671Z,1002.43
2023-01-21T00:46:05.678Z,1002.41
2023-01-21T00:47:05.647Z,1002.41
2023-01-21T00:48:05.605Z,1002.51
2023-01-21T00:49:05.608Z,1002.48
2023-01-21T00:50:05.693Z,1002.51
2023-01-21T00:51:05.671Z,1002.49
2023-01-21T00:52:05.575Z,1002.52
2023-01-21T00:53:05.593Z,1002.56
2023-01-21T00:54:05.581Z,1002.61
2023-01-21T00:55:05.547Z,1002.65
2023-01-21T00:56:05.562Z,1002.58
2023-01-21T00:57:05.625Z,1002.59
2023-01-21T00:58:05.571Z,1002.58
2023-01-21T00:59:05.534Z,1002.63
2023-01-21T01:00:05.547Z,1002.66
2023-01-21T01:01:05.513Z,1002.65
2023-01-21T01:02:05.555Z,1002.63
2023-01-21T01:03:05.515Z,1002.66
2023-01-21T01:04:05.503Z,1002.71
2023-01-21T01:05:05.502Z,1002.71
2023-01-21T01:06:05.491Z,1002.71
2023-01-21T01:07:05.535Z,1002.74
2023-01-21T01:08:05.496Z,1002.73
2023-01-21T01:09:05.465Z,1002.73
2023-01-21T01:10:05.524Z,1002.71
2023-01-21T01:11:05.526Z,1002.79
2023-01-21T01:12:05.462Z,1002.80
2023-01-21T01:13:06.403Z,1002.86
2023-01-21T01:14:05.464Z,1002.84
2023-01-21T01:15:05.442Z,1002.83
2023-01-21T01:16:05.597Z,1002.82
2023-01-21T01:17:05.449Z,1002.85
2023-01-21T01:18:05.477Z,1002.80
2023-01-21T01:19:05.410Z,1002.89
2023-01-21T01:20:05.417Z,1002.92
2023-01-21T01:21:05.387Z,1002.97
2023-01-21T01:22:05.400Z,1002.94
2023-01-21T01:23:06.055Z,1002.96
2023-01-21T01:24:05.374Z,1002.98
2023-01-21T01:25:05.404Z,1003.02
2023-01-21T01:26:05.383Z,1003.02
2023-01-21T01:27:05.351Z,1003.06
2023-01-21T01:28:05.945Z,1003.03
2023-01-21T01:29:05.326Z,1003.02
2023-01-21T01:30:05.381Z,1003.11
2023-01-21T01:31:05.500Z,1003.03
2023-01-21T01:32:05.384Z,1003.09
2023-01-21T01:33:05.350Z,1003.18
2023-01-21T01:34:05.323Z,1003.17
2023-01-21T01:35:05.307Z,1003.21
2023-01-21T01:36:05.310Z,1003.12
2023-01-21T01:37:05.336Z,1003.25
2023-01-21T01:38:05.318Z,1003.27
2023-01-21T01:39:05.294Z,1003.20
2023-01-21T01:40:05.346Z,1003.29
2023-01-21T01:41:05.349Z,1003.27
2023-01-21T01:42:05.278Z,1003.29
2023-01-21T01:43:05.282Z,1003.32
2023-01-21T01:44:05.249Z,1003.29
2023-01-21T01:45:05.281Z,1003.28
2023-01-21T01:46:05.324Z,1003.26
2023-01-21T01:47:05.247Z,1003.30
2023-01-21T01:48:05.246Z,1003.27
2023-01-21T01:49:05.287Z,1003.30
2023-01-21T01:50:05.224Z,1003.25
2023-01-21T01:51:05.322Z,1003.29
2023-01-21T01:52:05.205Z,1003.32
2023-01-21T01:53:05.243Z,1003.33
2023-01-21T01:54:05.215Z,1003.39
2023-01-21T01:55:05.199Z,1003.31
2023-01-21T01:56:05.202Z,1003.38
2023-01-21T01:57:05.162Z,1003.35
2023-01-21T01:58:05.248Z,1003.39
2023-01-21T01:59:05.165Z,1003.34
2023-01-21T02:00:05.171Z,1003.39
2023-01-21T02:01:05.183Z,1003.37
2023-01-21T02:02:05.145Z,1003.42
2023-01-21T02:03:05.124Z,1003.43
2023-01-21T02:04:05.165Z,1003.39
2023-01-21T02:05:05.145Z,1003.43
2023-01-21T02:06:05.118Z,1003.45
2023-01-21T02:07:05.112Z,1003.42
2023-01-21T02:08:05.117Z,1003.46
2023-01-21T02:09:05.082Z,1003.50
2023-01-21T02:10:05.128Z,1003.45
2023-01-21T02:11:05.113Z,1003.54
2023-01-21T02:12:05.088Z,1003.53
2023-01-21T02:13:05.101Z,1003.54
2023-01-21T02:14:05.112Z,1003.52
2023-01-21T02:15:05.059Z,1003.65
2023-01-21T02:16:05.092Z,1003.55
2023-01-21T02:17:05.038Z,1003.62
2023-01-21T02:18:05.070Z,1003.58
2023-01-21T02:19:05.034Z,1003.62
2023-01-21T02:20:05.520Z,1003.64
2023-01-21T02:21:05.166Z,1003.55
2023-01-21T02:22:05.041Z,1003.56
2023-01-21T02:23:05.008Z,1003.60
2023-01-21T02:24:05.160Z,1003.65
2023-01-21T02:25:05.463Z,1003.68
2023-01-21T02:26:04.988Z,1003.60
2023-01-21T02:27:05.027Z,1003.67
2023-01-21T02:28:04.990Z,1003.62
2023-01-21T02:29:05.195Z,1003.62
2023-01-21T02:30:05.022Z,1003.64
2023-01-21T02:31:05.096Z,1003.64
2023-01-21T02:32:04.966Z,1003.62
2023-01-21T02:33:04.951Z,1003.66
2023-01-21T02:34:05.206Z,1003.60
2023-01-21T02:35:04.982Z,1003.66
2023-01-21T02:36:05.292Z,1003.67
2023-01-21T02:37:05.106Z,1003.63
2023-01-21T02:38:04.902Z,1003.65
2023-01-21T02:39:04.913Z,1003.67
2023-01-21T02:40:04.928Z,1003.74
2023-01-21T02:41:04.919Z,1003.78
2023-01-21T02:42:05.413Z,1003.81
2023-01-21T02:43:04.903Z,1003.77
2023-01-21T02:44:04.934Z,1003.81
2023-01-21T02:45:04.917Z,1003.81
2023-01-21T02:46:04.924Z,1003.83
2023-01-21T02:47:04.855Z,1003.83
2023-01-21T02:48:04.919Z,1003.79
2023-01-21T02:49:04.872Z,1003.84
2023-01-21T02:50:04.885Z,1003.89
2023-01-21T02:51:04.907Z,1003.88
2023-01-21T02:52:04.841Z,1003.95
2023-01-21T02:53:04.835Z,1003.89
2023-01-21T02:54:04.800Z,1003.90
2023-01-21T02:55:04.809Z,1003.96
2023-01-21T02:56:04.876Z,1004.00
2023-01-21T02:57:04.812Z,1003.98
2023-01-21T02:58:04.845Z,1003.91
2023-01-21T02:59:04.982Z,1003.96
2023-01-21T03:00:04.917Z,1004.04
2023-01-21T03:01:04.799Z,1004.00
2023-01-21T03:02:04.811Z,1004.02
2023-01-21T03:03:04.812Z,1004.00
2023-01-21T03:04:04.737Z,1004.08
2023-01-21T03:05:04.792Z,1004.01
2023-01-21T03:06:04.753Z,1004.02
2023-01-21T03:07:04.732Z,1004.06
2023-01-21T03:08:04.743Z,1004.04
2023-01-21T03:09:04.758Z,1004.09
2023-01-21T03:10:04.713Z,1004.06
2023-01-21T03:11:04.793Z,1004.08
2023-01-21T03:12:04.707Z,1004.09
2023-01-21T03:13:04.719Z,1004.10
2023-01-21T03:14:05.438Z,1004.06
2023-01-21T03:15:04.747Z,1004.11
2023-01-21T03:16:04.683Z,1004.11
2023-01-21T03:17:04.696Z,1004.15
2023-01-21T03:18:04.663Z,1004.09
2023-01-21T03:19:04.660Z,1004.13
2023-01-21T03:20:04.649Z,1004.06
2023-01-21T03:21:04.675Z,1004.08
2023-01-21T03:22:04.775Z,1004.09
2023-01-21T03:23:04.660Z,1004.13
2023-01-21T03:24:04.629Z,1004.07
2023-01-21T03:25:04.656Z,1004.10
2023-01-21T03:26:04.605Z,1004.07
2023-01-21T03:27:04.637Z,1004.07
2023-01-21T03:28:04.589Z,1004.08
2023-01-21T03:29:04.742Z,1004.11
2023-01-21T03:30:04.586Z,1004.11
2023-01-21T03:31:04.738Z,1004.14
2023-01-21T03:32:04.593Z,1004.13
2023-01-21T03:33:04.557Z,1004.13
2023-01-21T03:34:04.547Z,1004.13
2023-01-21T03:35:04.567Z,1004.11
2023-01-21T03:36:04.527Z,1004.10
2023-01-21T03:37:04.577Z,1004.17
2023-01-21T03:38:04.528Z,1004.21
2023-01-21T03:39:04.537Z,1004.15
2023-01-21T03:40:04.530Z,1004.12
2023-01-21T03:41:04.908Z,1004.16
2023-01-21T03:42:04.504Z,1004.16
2023-01-21T03:43:04.511Z,1004.16
2023-01-21T03:44:04.513Z,1004.25
2023-01-21T03:45:04.526Z,1004.13
2023-01-21T03:46:04.538Z,1004.19
2023-01-21T03:47:04.529Z,1004.20
2023-01-21T03:48:04.453Z,1004.22
2023-01-21T03:49:04.485Z,1004.19
2023-01-21T03:50:04.473Z,1004.29
2023-01-21T03:51:04.469Z,1004.22
2023-01-21T03:52:04.444Z,1004.27
2023-01-21T03:53:04.459Z,1004.24
2023-01-21T03:54:04.420Z,1004.28
2023-01-21T03:55:04.437Z,1004.29
2023-01-21T03:56:04.477Z,1004.25
2023-01-21T03:57:04.513Z,1004.20
2023-01-21T03:58:04.413Z,1004.29
2023-01-21T03:59:04.416Z,1004.27
2023-01-21T04:00:04.427Z,1004.27
2023-01-21T04:01:04.439Z,1004.27
2023-01-21T04:02:04.478Z,1004.31
2023-01-21T04:03:04.415Z,1004.26
2023-01-21T04:04:04.399Z,1004.25
2023-01-21T04:05:04.364Z,1004.29
2023-01-21T04:06:04.987Z,1004.29
2023-01-21T04:07:04.340Z,1004.30
2023-01-21T04:08:04.363Z,1004.23
2023-01-21T04:09:04.345Z,1004.25
2023-01-21T04:10:04.315Z,1004.20
2023-01-21T04:11:04.350Z,1004.22
2023-01-21T04:12:04.351Z,1004.25
2023-01-21T04:13:04.405Z,1004.23
2023-01-21T04:14:04.290Z,1004.25
2023-01-21T04:15:05.555Z,1004.27
2023-01-21T04:16:04.338Z,1004.30
2023-01-21T04:17:04.312Z,1004.32
2023-01-21T04:18:04.303Z,1004.31
2023-01-21T04:19:04.323Z,1004.33
2023-01-21T04:20:04.254Z,1004.34
2023-01-21T04:21:04.244Z,1004.30
2023-01-21T04:22:04.898Z,1004.30
2023-01-21T04:23:04.245Z,1004.27
2023-01-21T04:24:04.380Z,1004.30
2023-01-21T04:25:04.236Z,1004.31
2023-01-21T04:26:04.226Z,1004.33
2023-01-21T04:27:04.214Z,1004.36
2023-01-21T04:28:04.242Z,1004.34
2023-01-21T04:29:04.318Z,1004.28
2023-01-21T04:30:04.212Z,1004.40
2023-01-21T04:31:04.246Z,1004.37
2023-01-21T04:32:04.271Z,1004.25
2023-01-21T04:33:04.190Z,1004.39
2023-01-21T04:34:04.161Z,1004.33
2023-01-21T04:35:04.222Z,1004.33
2023-01-21T04:36:04.148Z,1004.40
2023-01-21T04:37:04.176Z,1004.39
2023-01-21T04:38:04.166Z,1004.39
2023-01-21T04:39:04.135Z,1004.42
2023-01-21T04:40:04.129Z,1004.39
2023-01-21T04:41:04.111Z,1004.44
2023-01-21T04:42:04.146Z,1004.48
2023-01-21T04:43:04.142Z,1004.51
2023-01-21T04:44:04.178Z,1004.47
2023-01-21T04:45:04.097Z,1004.43
2023-01-21T04:46:04.326Z,1004.38
2023-01-21T04:47:04.166Z,1004.45
2023-01-21T04:48:04.893Z,1004.43
2023-01-21T04:49:04.089Z,1004.37
2023-01-21T04:50:04.068Z,1004.44
2023-01-21T04:51:04.163Z,1004.44
2023-01-21T04:52:04.085Z,1004.43
2023-01-21T04:53:04.100Z,1004.35
2023-01-21T04:54:04.023Z,1004.42
2023-01-21T04:55:04.075Z,1004.47
2023-01-21T04:56:04.091Z,1004.47
2023-01-21T04:57:04.045Z,1004.45
2023-01-21T04:58:04.040Z,1004.44
2023-01-21T04:59:04.058Z,1004.50
2023-01-21T05:00:04.001Z,1004.39
2023-01-21T05:01:04.062Z,1004.40
2023-01-21T05:02:04.084Z,1004.43
2023-01-21T05:03:03.964Z,1004.47
2023-01-21T05:04:04.001Z,1004.49
2023-01-21T05:05:03.974Z,1004.48
2023-01-21T05:06:05.052Z,1004.43
2023-01-21T05:07:03.983Z,1004.46
2023-01-21T05:08:03.949Z,1004.47
2023-01-21T05:09:03.956Z,1004.51
2023-01-21T05:10:03.957Z,1004.48
2023-01-21T05:11:03.952Z,1004.50
2023-01-21T05:12:04.049Z,1004.42
2023-01-21T05:13:03.945Z,1004.45
2023-01-21T05:14:03.955Z,1004.46
2023-01-21T05:15:03.951Z,1004.50
2023-01-21T05:16:03.981Z,1004.47
2023-01-21T05:17:04.051Z,1004.51
2023-01-21T05:18:03.911Z,1004.47
2023-01-21T05:19:03.915Z,1004.53
2023-01-21T05:20:03.892Z,1004.55
2023-01-21T05:21:03.969Z,1004.58
2023-01-21T05:22:03.940Z,1004.58
2023-01-21T05:23:03.900Z,1004.55
2023-01-21T05:24:03.893Z,1004.56
2023-01-21T05:25:03.854Z,1004.52
2023-01-21T05:26:03.853Z,1004.55
2023-01-21T05:27:03.953Z,1004.59
2023-01-21T05:28:03.869Z,1004.57
2023-01-21T05:29:03.869Z,1004.61
2023-01-21T05:30:03.851Z,1004.58
2023-01-21T05:31:04.008Z,1004.64
2023-01-21T05:32:03.833Z,1004.62
2023-01-21T05:33:03.851Z,1004.62
2023-01-21T05:34:03.835Z,1004.60
2023-01-21T05:35:03.816Z,1004.65
2023-01-21T05:36:03.828Z,1004.62
2023-01-21T05:37:03.788Z,1004.62
2023-01-21T05:38:03.798Z,1004.62
2023-01-21T05:39:03.829Z,1004.63
2023-01-21T05:40:03.784Z,1004.63
2023-01-21T05:41:03.799Z,1004.67
2023-01-21T05:42:03.771Z,1004.69
2023-01-21T05:43:05.374Z,1004.61
2023-01-21T05:44:03.860Z,1004.68
2023-01-21T05:45:03.790Z,1004.61
2023-01-21T05:46:03.743Z,1004.63
2023-01-21T05:47:03.736Z,1004.66
2023-01-21T05:48:03.747Z,1004.62
2023-01-21T05:49:03.709Z,1004.69
2023-01-21T05:50:03.711Z,1004.63
2023-01-21T05:51:03.796Z,1004.64
2023-01-21T05:52:03.706Z,1004.68
2023-01-21T05:53:03.710Z,1004.73
2023-01-21T05:54:03.713Z,1004.76
2023-01-21T05:55:03.723Z,1004.77
2023-01-21T05:56:03.726Z,1004.73
2023-01-21T05:57:03.692Z,1004.67
2023-01-21T05:58:03.676Z,1004.74
2023-01-21T05:59:03.783Z,1004.69
2023-01-21T06:00:03.712Z,1004.77
2023-01-21T06:01:03.658Z,1004.69
2023-01-21T06:02:03.753Z,1004.72
2023-01-21T06:03:03.664Z,1004.69
2023-01-21T06:04:03.634Z,1004.66
2023-01-21T06:05:03.645Z,1004.68
2023-01-21T06:06:03.665Z,1004.71
2023-01-21T06:07:03.619Z,1004.71
2023-01-21T06:08:03.662Z,1004.69
2023-01-21T06:09:03.636Z,1004.77
2023-01-21T06:10:03.637Z,1004.73
2023-01-21T06:11:03.663Z,1004.74
2023-01-21T06:12:03.592Z,1004.74
2023-01-21T06:13:03.609Z,1004.70
2023-01-21T06:14:03.619Z,1004.73
2023-01-21T06:15:03.632Z,1004.83
2023-01-21T06:16:03.617Z,1004.85
2023-01-21T06:17:03.578Z,1004.78
2023-01-21T06:18:03.551Z,1004.83
2023-01-21T06:19:03.599Z,1004.84
2023-01-21T06:20:03.562Z,1004.84
2023-01-21T06:21:03.591Z,1004.80
2023-01-21T06:22:03.563Z,1004.85
2023-01-21T06:23:03.587Z,1004.83
2023-01-21T06:24:03.568Z,1004.80
2023-01-21T06:25:03.544Z,1004.85
2023-01-21T06:26:03.547Z,1004.84
2023-01-21T06:27:04.070Z,1004.89
2023-01-21T06:28:03.501Z,1004.88
2023-01-21T06:29:03.508Z,1004.85
2023-01-21T06:30:03.482Z,1004.85
2023-01-21T06:31:03.566Z,1004.89
2023-01-21T06:32:03.604Z,1004.93
2023-01-21T06:33:03.477Z,1004.92
2023-01-21T06:34:03.512Z,1005.01
2023-01-21T06:35:03.478Z,1004.94
2023-01-21T06:36:03.473Z,1004.93
2023-01-21T06:37:03.463Z,1004.91
2023-01-21T06:38:03.452Z,1004.92
2023-01-21T06:39:04.411Z,1004.97
2023-01-21T06:40:03.444Z,1005.00
2023-01-21T06:41:03.443Z,1005.02
2023-01-21T06:42:03.434Z,1004.97
2023-01-21T06:43:03.448Z,1005.06
2023-01-21T06:44:03.415Z,1005.05
2023-01-21T06:45:03.406Z,1005.02
2023-01-21T06:46:03.529Z,1005.02
2023-01-21T06:47:03.504Z,1005.07
2023-01-21T06:48:03.389Z,1005.12
2023-01-21T06:49:03.933Z,1005.10
2023-01-21T06:50:03.382Z,1005.08
2023-01-21T06:51:03.496Z,1005.09
2023-01-21T06:52:03.409Z,1005.08
2023-01-21T06:53:03.934Z,1005.06
2023-01-21T06:54:03.372Z,1005.05
2023-01-21T06:55:03.402Z,1005.12
2023-01-21T06:56:03.334Z,1005.09
2023-01-21T06:57:03.337Z,1005.10
2023-01-21T06:58:03.364Z,1005.16
2023-01-21T06:59:03.370Z,1005.15
2023-01-21T07:00:03.360Z,1005.19
2023-01-21T07:01:03.456Z,1005.11
2023-01-21T07:02:03.569Z,1005.13
2023-01-21T07:03:03.383Z,1005.23
2023-01-21T07:04:03.325Z,1005.18
2023-01-21T07:05:03.356Z,1005.22
2023-01-21T07:06:03.325Z,1005.28
2023-01-21T07:07:03.298Z,1005.21
2023-01-21T07:08:03.279Z,1005.22
2023-01-21T07:09:03.283Z,1005.26
2023-01-21T07:10:03.313Z,1005.22
2023-01-21T07:11:03.306Z,1005.27
2023-01-21T07:12:03.257Z,1005.27
2023-01-21T07:13:03.354Z,1005.33
2023-01-21T07:14:03.245Z,1005.28
2023-01-21T07:15:03.269Z,1005.36
2023-01-21T07:16:06.798Z,1005.43
2023-01-21T07:17:03.236Z,1005.30
2023-01-21T07:18:03.217Z,1005.36
2023-01-21T07:19:03.231Z,1005.34
2023-01-21T07:20:03.240Z,1005.33
2023-01-21T07:21:03.237Z,1005.38
2023-01-21T07:22:03.206Z,1005.40
2023-01-21T07:23:03.226Z,1005.37
2023-01-21T07:24:03.180Z,1005.42
2023-01-21T07:25:03.199Z,1005.45
2023-01-21T07:26:03.219Z,1005.45
2023-01-21T07:27:03.169Z,1005.50
2023-01-21T07:28:03.176Z,1005.44
2023-01-21T07:29:03.175Z,1005.49
2023-01-21T07:30:03.199Z,1005.52
2023-01-21T07:31:03.427Z,1005.48
2023-01-21T07:32:03.217Z,1005.48
2023-01-21T07:33:03.151Z,1005.52
2023-01-21T07:34:03.139Z,1005.57
2023-01-21T07:35:03.131Z,1005.57
2023-01-21T07:36:03.158Z,1005.55
2023-01-21T07:37:03.295Z,1005.59
2023-01-21T07:38:03.132Z,1005.62
2023-01-21T07:39:03.103Z,1005.61
2023-01-21T07:40:03.111Z,1005.59
2023-01-21T07:41:03.120Z,1005.59
2023-01-21T07:42:03.081Z,1005.58
2023-01-21T07:43:03.091Z,1005.63
2023-01-21T07:44:03.090Z,1005.64
2023-01-21T07:45:03.144Z,1005.61
2023-01-21T07:46:03.107Z,1005.63
2023-01-21T07:47:03.093Z,1005.69
2023-01-21T07:48:03.170Z,1005.65
2023-01-21T07:49:03.084Z,1005.68
2023-01-21T07:50:03.031Z,1005.71
2023-01-21T07:51:03.125Z,1005.69
2023-01-21T07:52:03.083Z,1005.69
2023-01-21T07:53:03.026Z,1005.65
2023-01-21T07:54:03.033Z,1005.66
2023-01-21T07:55:03.036Z,1005.70
2023-01-21T07:56:03.032Z,1005.71
2023-01-21T07:57:03.044Z,1005.71
2023-01-21T07:58:03.009Z,1005.71
2023-01-21T07:59:03.003Z,1005.75
2023-01-21T08:00:02.994Z,1005.74
2023-01-21T08:01:03.053Z,1005.68
2023-01-21T08:02:03.142Z,1005.68
2023-01-21T08:03:03.024Z,1005.71
2023-01-21T08:04:02.974Z,1005.70
2023-01-21T08:05:02.960Z,1005.71
2023-01-21T08:06:02.961Z,1005.59
2023-01-21T08:07:02.946Z,1005.74
2023-01-21T08:08:02.952Z,1005.71
2023-01-21T08:09:03.480Z,1005.66
2023-01-21T08:10:02.951Z,1005.65
2023-01-21T08:11:02.998Z,1005.72
2023-01-21T08:12:02.929Z,1005.70
2023-01-21T08:13:03.104Z,1005.76
2023-01-21T08:14:03.930Z,1005.71
2023-01-21T08:15:02.927Z,1005.79
2023-01-21T08:16:02.948Z,1005.74
2023-01-21T08:17:02.935Z,1005.75
2023-01-21T08:18:02.886Z,1005.77
2023-01-21T08:19:03.456Z,1005.75
2023-01-21T08:20:03.032Z,1005.70
2023-01-21T08:21:02.974Z,1005.88
2023-01-21T08:22:02.968Z,1005.81
2023-01-21T08:23:02.928Z,1005.82
2023-01-21T08:24:02.877Z,1005.78
2023-01-21T08:25:02.972Z,1005.84
2023-01-21T08:26:02.838Z,1005.79
2023-01-21T08:27:02.828Z,1005.82
2023-01-21T08:28:02.868Z,1005.80
2023-01-21T08:29:02.945Z,1005.85
2023-01-21T08:30:02.822Z,1005.87
2023-01-21T08:31:10.084Z,1005.88
2023-01-21T08:32:02.805Z,1005.85
2023-01-21T08:33:04.376Z,1005.86
2023-01-21T08:34:02.833Z,1005.95
2023-01-21T08:35:02.822Z,1005.98
2023-01-21T08:36:03.032Z,1005.93
2023-01-21T08:37:02.883Z,1005.98
2023-01-21T08:38:02.831Z,1006.04
2023-01-21T08:39:02.762Z,1005.99
2023-01-21T08:40:02.799Z,1005.98
2023-01-21T08:41:02.767Z,1006.02
2023-01-21T08:42:02.742Z,1006.01
2023-01-21T08:43:02.772Z,1006.04
2023-01-21T08:44:02.724Z,1005.99
2023-01-21T08:45:02.992Z,1006.03
2023-01-21T08:46:02.763Z,1006.05
2023-01-21T08:47:02.728Z,1006.08
2023-01-21T08:48:02.695Z,1006.10
2023-01-21T08:49:02.747Z,1006.12
2023-01-21T08:50:02.716Z,1006.05
2023-01-21T08:51:02.754Z,1006.05
2023-01-21T08:52:02.707Z,1006.12
2023-01-21T08:53:02.666Z,1006.02
2023-01-21T08:54:02.664Z,1006.12
2023-01-21T08:55:02.667Z,1006.20
2023-01-21T08:56:02.630Z,1006.15
2023-01-21T08:57:02.642Z,1006.25
2023-01-21T08:58:02.644Z,1006.24
2023-01-21T08:59:03.634Z,1006.26
2023-01-21T09:00:02.625Z,1006.21
2023-01-21T09:01:02.675Z,1006.32
2023-01-21T09:02:02.697Z,1006.32
2023-01-21T09:03:02.630Z,1006.29
2023-01-21T09:04:02.624Z,1006.34
2023-01-21T09:05:02.680Z,1006.39
2023-01-21T09:06:02.647Z,1006.32
2023-01-21T09:07:02.695Z,1006.33
2023-01-21T09:08:02.605Z,1006.30
2023-01-21T09:09:02.603Z,1006.37
2023-01-21T09:10:02.546Z,1006.29
2023-01-21T09:11:02.630Z,1006.32
2023-01-21T09:12:02.602Z,1006.37
2023-01-21T09:13:02.591Z,1006.43
2023-01-21T09:14:02.560Z,1006.45
2023-01-21T09:15:02.540Z,1006.47
2023-01-21T09:16:02.521Z,1006.41
2023-01-21T09:17:02.576Z,1006.42
2023-01-21T09:18:02.560Z,1006.48
2023-01-21T09:19:02.530Z,1006.47
2023-01-21T09:20:02.607Z,1006.53
2023-01-21T09:21:02.526Z,1006.50
2023-01-21T09:22:02.481Z,1006.52
2023-01-21T09:23:02.488Z,1006.59
2023-01-21T09:24:02.530Z,1006.59
2023-01-21T09:25:02.465Z,1006.55
2023-01-21T09:26:02.458Z,1006.55
2023-01-21T09:27:02.441Z,1006.56
2023-01-21T09:28:02.462Z,1006.58
2023-01-21T09:29:02.500Z,1006.60
2023-01-21T09:30:02.469Z,1006.59
2023-01-21T09:31:02.553Z,1006.58
2023-01-21T09:32:02.499Z,1006.58
2023-01-21T09:33:02.426Z,1006.50
2023-01-21T09:34:02.459Z,1006.56
2023-01-21T09:35:02.383Z,1006.50
2023-01-21T09:36:02.428Z,1006.56
2023-01-21T09:37:02.444Z,1006.56
2023-01-21T09:38:02.376Z,1006.55
2023-01-21T09:39:02.418Z,1006.63
2023-01-21T09:40:02.367Z,1006.60
2023-01-21T09:41:02.469Z,1006.52
2023-01-21T09:42:02.371Z,1006.53
2023-01-21T09:43:02.347Z,1006.58
2023-01-21T09:44:02.484Z,1006.56
2023-01-21T09:45:02.356Z,1006.56
2023-01-21T09:46:04.029Z,1006.60
2023-01-21T09:47:02.326Z,1006.62
2023-01-21T09:48:02.341Z,1006.67
2023-01-21T09:49:02.300Z,1006.65
2023-01-21T09:50:02.305Z,1006.73
2023-01-21T09:51:02.358Z,1006.73
2023-01-21T09:52:02.291Z,1006.73
2023-01-21T09:53:02.372Z,1006.67
2023-01-21T09:54:02.306Z,1006.77
2023-01-21T09:55:02.301Z,1006.73
2023-01-21T09:56:02.391Z,1006.76
2023-01-21T09:57:02.277Z,1006.72
2023-01-21T09:58:02.278Z,1006.77
2023-01-21T09:59:02.256Z,1006.77
2023-01-21T10:00:02.388Z,1006.79
2023-01-21T10:01:02.270Z,1006.79
2023-01-21T10:02:02.319Z,1006.86
2023-01-21T10:03:02.356Z,1006.78
2023-01-21T10:04:02.207Z,1006.82
2023-01-21T10:05:02.219Z,1006.86
2023-01-21T10:06:02.205Z,1006.86
2023-01-21T10:07:02.168Z,1006.88
2023-01-21T10:08:02.202Z,1006.90
2023-01-21T10:09:02.171Z,1006.92
2023-01-21T10:10:02.277Z,1006.83
2023-01-21T10:11:02.180Z,1006.92
2023-01-21T10:12:02.158Z,1006.87
2023-01-21T10:13:02.220Z,1006.92
2023-01-21T10:14:02.126Z,1006.91
2023-01-21T10:15:02.132Z,1006.88
2023-01-21T10:16:02.977Z,1006.94
2023-01-21T10:17:02.124Z,1006.96
2023-01-21T10:18:02.141Z,1007.05
2023-01-21T10:19:02.099Z,1006.98
2023-01-21T10:20:02.114Z,1006.99
2023-01-21T10:21:02.170Z,1006.94
2023-01-21T10:22:02.299Z,1006.97
2023-01-21T10:23:02.080Z,1006.87
2023-01-21T10:24:02.108Z,1006.92
2023-01-21T10:25:02.039Z,1006.97
2023-01-21T10:26:02.205Z,1006.91
2023-01-21T10:27:02.080Z,1006.93
2023-01-21T10:28:02.024Z,1006.91
2023-01-21T10:29:02.033Z,1006.88
2023-01-21T10:30:02.097Z,1006.95
2023-01-21T10:31:02.170Z,1006.93
2023-01-21T10:32:02.078Z,1006.85
2023-01-21T10:33:02.098Z,1006.93
2023-01-21T10:34:01.980Z,1006.88
2023-01-21T10:35:01.973Z,1006.85
2023-01-21T10:36:02.066Z,1006.87
2023-01-21T10:37:01.956Z,1006.85
2023-01-21T10:38:01.965Z,1006.89
2023-01-21T10:39:01.947Z,1006.85
2023-01-21T10:40:02.257Z,1006.88
2023-01-21T10:41:01.933Z,1006.86
2023-01-21T10:42:01.923Z,1006.89
2023-01-21T10:43:01.933Z,1006.90
2023-01-21T10:44:01.935Z,1006.92
2023-01-21T10:45:01.903Z,1006.90
2023-01-21T10:46:01.921Z,1006.93
2023-01-21T10:47:01.925Z,1006.94
2023-01-21T10:48:01.917Z,1006.93
2023-01-21T10:49:01.857Z,1006.94
2023-01-21T10:50:02.002Z,1006.94
2023-01-21T10:51:02.006Z,1006.94
2023-01-21T10:52:01.862Z,1006.97
2023-01-21T10:53:01.861Z,1006.92
2023-01-21T10:54:01.850Z,1006.98
2023-01-21T10:55:01.889Z,1006.94
2023-01-21T10:56:01.862Z,1006.92
2023-01-21T10:57:01.809Z,1006.81
2023-01-21T10:58:01.945Z,1006.82
2023-01-21T10:59:01.833Z,1006.86
2023-01-21T11:00:01.820Z,1006.90
2023-01-21T11:01:01.900Z,1006.90
2023-01-21T11:02:01.830Z,1006.89
2023-01-21T11:03:01.763Z,1006.95
2023-01-21T11:04:01.779Z,1006.87
2023-01-21T11:05:01.770Z,1006.92
2023-01-21T11:06:01.774Z,1006.86
2023-01-21T11:07:01.763Z,1006.87
2023-01-21T11:08:01.769Z,1006.82
2023-01-21T11:09:01.776Z,1006.93
2023-01-21T11:10:01.743Z,1006.91
2023-01-21T11:11:01.760Z,1006.88
2023-01-21T11:12:02.058Z,1006.85
2023-01-21T11:13:01.790Z,1006.83
2023-01-21T11:14:01.697Z,1006.90
2023-01-21T11:15:01.705Z,1006.89
2023-01-21T11:16:01.814Z,1006.87
2023-01-21T11:17:01.695Z,1006.85
2023-01-21T11:18:01.725Z,1006.90
2023-01-21T11:19:01.659Z,1006.91
2023-01-21T11:20:01.644Z,1006.95
2023-01-21T11:21:01.639Z,1006.86
2023-01-21T11:22:01.663Z,1006.91
2023-01-21T11:23:01.646Z,1006.93
2023-01-21T11:24:01.629Z,1006.98
2023-01-21T11:25:01.630Z,1006.88
2023-01-21T11:26:01.615Z,1006.82
2023-01-21T11:27:01.776Z,1006.83
2023-01-21T11:28:01.633Z,1006.86
2023-01-21T11:29:01.622Z,1006.81
2023-01-21T11:30:01.570Z,1006.81
2023-01-21T11:31:01.711Z,1006.74
2023-01-21T11:32:01.799Z,1006.78
2023-01-21T11:33:01.568Z,1006.74
2023-01-21T11:34:01.627Z,1006.67
2023-01-21T11:35:01.560Z,1006.71
2023-01-21T11:36:01.556Z,1006.72
2023-01-21T11:37:01.594Z,1006.74
2023-01-21T11:38:01.587Z,1006.75
2023-01-21T11:39:01.916Z,1006.70
2023-01-21T11:40:02.417Z,1006.69
2023-01-21T11:41:01.504Z,1006.66
2023-01-21T11:42:01.481Z,1006.70
2023-01-21T11:43:01.594Z,1006.73
2023-01-21T11:44:01.470Z,1006.71
2023-01-21T11:45:01.501Z,1006.73
2023-01-21T11:46:01.614Z,1006.75
2023-01-21T11:47:01.555Z,1006.71
2023-01-21T11:48:01.485Z,1006.70
2023-01-21T11:49:01.511Z,1006.75
2023-01-21T11:50:01.429Z,1006.74
2023-01-21T11:51:01.491Z,1006.74
2023-01-21T11:52:01.462Z,1006.78
2023-01-21T11:53:02.027Z,1006.78
2023-01-21T11:54:01.395Z,1006.70
2023-01-21T11:55:01.422Z,1006.72
2023-01-21T11:56:01.395Z,1006.74
2023-01-21T11:57:01.393Z,1006.71
2023-01-21T11:58:01.383Z,1006.69
2023-01-21T11:59:01.406Z,1006.74
2023-01-21T12:00:01.404Z,1006.71
2023-01-21T12:01:01.372Z,1006.72
2023-01-21T12:02:01.376Z,1006.71
2023-01-21T12:03:02.213Z,1006.76
2023-01-21T12:04:01.403Z,1006.67
2023-01-21T12:05:01.362Z,1006.70